createdAt,value
2018-12-01T00:00:13.667Z,5.50
2018-12-01T00:02:42.020Z,5.50
2018-12-01T00:05:10.264Z,5.60
2018-12-01T00:07:38.548Z,5.60
2018-12-01T00:10:06.985Z,5.60
2018-12-01T00:12:35.516Z,5.60
2018-12-01T00:15:03.878Z,5.60
2018-12-01T00:17:32.147Z,5.60
2018-12-01T00:20:00.407Z,5.60
2018-12-01T00:22:28.658Z,5.60
2018-12-01T00:24:56.938Z,5.60
2018-12-01T00:27:25.207Z,5.60
2018-12-01T00:29:53.467Z,5.60
2018-12-01T00:32:21.722Z,5.60
2018-12-01T00:34:49.987Z,5.60
2018-12-01T00:37:18.251Z,5.60
2018-12-01T00:39:46.518Z,5.50
2018-12-01T00:42:14.784Z,5.50
2018-12-01T00:44:43.035Z,5.50
2018-12-01T00:47:11.298Z,5.50
2018-12-01T00:49:39.556Z,5.50
2018-12-01T00:52:07.839Z,5.50
2018-12-01T00:54:36.099Z,5.50
2018-12-01T00:57:04.410Z,5.60
2018-12-01T00:59:39.076Z,5.60
2018-12-01T01:02:11.566Z,5.60
2018-12-01T01:04:39.850Z,5.50
2018-12-01T01:07:08.122Z,5.60
2018-12-01T01:09:36.399Z,5.60
2018-12-01T01:12:04.690Z,5.60
2018-12-01T01:14:32.958Z,5.60
2018-12-01T01:17:01.227Z,5.60
2018-12-01T01:19:29.494Z,5.60
2018-12-01T01:21:57.767Z,5.70
2018-12-01T01:24:26.056Z,5.60
2018-12-01T01:26:54.363Z,5.60
2018-12-01T01:29:22.617Z,5.60
2018-12-01T01:31:50.863Z,5.70
2018-12-01T01:34:19.129Z,5.70
2018-12-01T01:36:47.382Z,5.70
2018-12-01T01:39:15.664Z,5.70
2018-12-01T01:41:43.924Z,5.60
2018-12-01T01:44:12.167Z,5.70
2018-12-01T01:46:40.454Z,5.70
2018-12-01T01:49:08.717Z,5.70
2018-12-01T01:51:36.984Z,5.70
2018-12-01T01:54:05.336Z,5.70
2018-12-01T01:56:33.592Z,5.70
2018-12-01T01:59:01.851Z,5.70
2018-12-01T02:01:30.115Z,5.70
2018-12-01T02:03:58.370Z,5.70
2018-12-01T02:06:26.620Z,5.70
2018-12-01T02:08:54.883Z,5.70
2018-12-01T02:11:23.163Z,5.70
2018-12-01T02:13:51.436Z,5.70
2018-12-01T02:16:19.710Z,5.70
2018-12-01T02:18:47.980Z,5.70
2018-12-01T02:21:16.453Z,5.80
2018-12-01T02:23:44.708Z,5.80
2018-12-01T02:26:12.976Z,5.80
2018-12-01T02:28:41.254Z,5.80
2018-12-01T02:31:09.528Z,5.80
2018-12-01T02:33:37.792Z,5.80
2018-12-01T02:36:06.083Z,5.70
2018-12-01T02:38:34.357Z,5.70
2018-12-01T02:41:02.636Z,5.80
2018-12-01T02:43:30.897Z,5.70
2018-12-01T02:46:10.554Z,5.60
2018-12-01T02:48:38.860Z,5.60
2018-12-01T02:51:07.142Z,5.60
2018-12-01T02:53:35.392Z,5.70
2018-12-01T02:56:03.669Z,5.70
2018-12-01T02:58:31.929Z,5.60
2018-12-01T03:01:00.207Z,5.60
2018-12-01T03:03:28.468Z,5.70
2018-12-01T03:05:56.739Z,5.80
2018-12-01T03:08:25.023Z,5.80
2018-12-01T03:10:53.288Z,5.80
2018-12-01T03:13:21.565Z,5.80
2018-12-01T03:15:49.811Z,5.80
2018-12-01T03:18:18.079Z,5.90
2018-12-01T03:20:46.398Z,5.90
2018-12-01T03:23:14.680Z,5.90
2018-12-01T03:25:42.966Z,5.90
2018-12-01T03:28:11.226Z,5.90
2018-12-01T03:30:39.552Z,5.90
2018-12-01T03:33:07.809Z,5.90
2018-12-01T03:35:36.059Z,5.90
2018-12-01T03:38:04.336Z,5.90
2018-12-01T03:40:37.996Z,5.90
2018-12-01T03:43:06.779Z,5.90
2018-12-01T03:45:35.035Z,5.90
2018-12-01T03:48:03.312Z,5.80
2018-12-01T03:50:31.578Z,5.80
2018-12-01T03:52:59.838Z,5.70
2018-12-01T03:55:30.100Z,5.70
2018-12-01T03:57:58.494Z,5.70
2018-12-01T04:00:32.177Z,5.70
2018-12-01T04:03:01.130Z,5.70
2018-12-01T04:05:29.522Z,5.60
2018-12-01T04:07:57.812Z,5.60
2018-12-01T04:10:26.147Z,5.60
2018-12-01T04:12:55.368Z,5.50
2018-12-01T04:15:23.743Z,5.50
2018-12-01T04:17:52.043Z,5.50
2018-12-01T04:20:20.379Z,5.40
2018-12-01T04:22:48.638Z,5.40
2018-12-01T04:25:16.924Z,5.40
2018-12-01T04:27:45.190Z,5.40
2018-12-01T04:30:15.443Z,5.30
2018-12-01T04:32:43.726Z,5.20
2018-12-01T04:35:15.855Z,5.20
2018-12-01T04:37:44.679Z,5.20
2018-12-01T04:40:13.023Z,5.20
2018-12-01T04:42:41.391Z,5.20
2018-12-01T04:45:09.706Z,5.20
2018-12-01T04:47:37.982Z,5.30
2018-12-01T04:50:08.675Z,5.30
2018-12-01T04:52:36.983Z,5.40
2018-12-01T04:55:06.846Z,5.40
2018-12-01T04:57:35.121Z,5.40
2018-12-01T05:00:03.414Z,5.40
2018-12-01T05:02:31.683Z,5.40
2018-12-01T05:04:59.939Z,5.40
2018-12-01T05:07:28.207Z,5.40
2018-12-01T05:09:56.471Z,5.50
2018-12-01T05:12:24.770Z,5.50
2018-12-01T05:14:53.042Z,5.50
2018-12-01T05:17:21.304Z,5.50
2018-12-01T05:19:49.597Z,5.60
2018-12-01T05:22:17.859Z,5.60
2018-12-01T05:24:46.137Z,5.60
2018-12-01T05:27:14.390Z,5.60
2018-12-01T05:29:42.666Z,5.70
2018-12-01T05:32:10.935Z,5.70
2018-12-01T05:34:39.225Z,5.70
2018-12-01T05:37:07.506Z,5.70
2018-12-01T05:39:35.802Z,5.70
2018-12-01T05:42:04.088Z,5.70
2018-12-01T05:44:32.361Z,5.70
2018-12-01T05:47:00.627Z,5.70
2018-12-01T05:49:28.886Z,5.70
2018-12-01T05:51:57.150Z,5.80
2018-12-01T05:54:25.411Z,5.80
2018-12-01T05:56:53.670Z,5.80
2018-12-01T05:59:21.944Z,5.80
2018-12-01T06:01:50.202Z,5.80
2018-12-01T06:04:18.460Z,5.80
2018-12-01T06:06:46.729Z,5.70
2018-12-01T06:09:14.996Z,5.80
2018-12-01T06:11:43.268Z,5.80
2018-12-01T06:14:11.535Z,5.90
2018-12-01T06:16:39.779Z,5.90
2018-12-01T06:19:08.043Z,5.90
2018-12-01T06:21:36.296Z,5.90
2018-12-01T06:24:04.661Z,5.90
2018-12-01T06:26:32.931Z,5.90
2018-12-01T06:29:01.208Z,5.90
2018-12-01T06:31:29.471Z,5.90
2018-12-01T06:33:57.743Z,5.80
2018-12-01T06:36:25.983Z,5.80
2018-12-01T06:38:54.610Z,5.90
2018-12-01T06:41:22.882Z,6.00
2018-12-01T06:43:51.155Z,6.00
2018-12-01T06:46:19.415Z,6.00
2018-12-01T06:48:47.683Z,6.00
2018-12-01T06:51:15.934Z,6.00
2018-12-01T06:53:44.213Z,6.00
2018-12-01T06:56:12.489Z,5.90
2018-12-01T06:58:40.749Z,5.90
2018-12-01T07:01:09.011Z,5.90
2018-12-01T07:03:37.268Z,5.90
2018-12-01T07:06:05.624Z,5.90
2018-12-01T07:08:33.871Z,5.90
2018-12-01T07:11:02.127Z,5.90
2018-12-01T07:13:30.392Z,5.90
2018-12-01T07:15:58.709Z,5.90
2018-12-01T07:19:34.670Z,5.80
2018-12-01T07:22:02.934Z,5.70
2018-12-01T07:24:31.183Z,5.80
2018-12-01T07:26:59.521Z,5.90
2018-12-01T07:29:27.804Z,5.80
2018-12-01T07:31:56.066Z,5.90
2018-12-01T07:34:24.322Z,5.80
2018-12-01T07:36:52.595Z,5.90
2018-12-01T07:39:20.851Z,5.90
2018-12-01T07:41:49.105Z,6.00
2018-12-01T07:44:17.369Z,6.10
2018-12-01T07:46:45.636Z,6.10
2018-12-01T07:49:13.882Z,6.20
2018-12-01T07:51:42.145Z,6.20
2018-12-01T07:54:10.440Z,6.30
2018-12-01T07:56:38.676Z,6.30
2018-12-01T07:59:06.967Z,6.30
2018-12-01T08:01:35.266Z,6.30
2018-12-01T08:04:03.590Z,6.40
2018-12-01T08:06:31.867Z,6.40
2018-12-01T08:09:00.138Z,6.50
2018-12-01T08:11:28.414Z,6.60
2018-12-01T08:13:56.701Z,6.70
2018-12-01T08:16:25.064Z,6.70
2018-12-01T08:18:53.334Z,6.70
2018-12-01T08:21:21.624Z,6.80
2018-12-01T08:23:49.886Z,6.80
2018-12-01T08:26:18.164Z,6.80
2018-12-01T08:28:46.443Z,6.80
2018-12-01T08:31:14.748Z,6.90
2018-12-01T08:33:43.042Z,6.90
2018-12-01T08:36:11.311Z,6.90
2018-12-01T08:38:39.598Z,6.90
2018-12-01T08:41:07.867Z,6.90
2018-12-01T08:43:36.114Z,6.90
2018-12-01T08:46:04.386Z,6.90
2018-12-01T08:48:32.663Z,6.90
2018-12-01T08:51:00.950Z,7.00
2018-12-01T08:53:29.210Z,7.00
2018-12-01T08:55:57.455Z,7.10
2018-12-01T08:58:25.727Z,7.20
2018-12-01T09:00:53.990Z,7.30
2018-12-01T09:03:23.118Z,7.30
2018-12-01T09:05:52.084Z,7.40
2018-12-01T09:08:20.362Z,7.40
2018-12-01T09:10:49.437Z,7.50
2018-12-01T09:13:17.696Z,7.60
2018-12-01T09:15:46.059Z,7.70
2018-12-01T09:18:14.324Z,7.90
2018-12-01T09:20:42.594Z,8.00
2018-12-01T09:23:10.863Z,8.00
2018-12-01T09:25:39.139Z,8.00
2018-12-01T09:28:08.346Z,7.90
2018-12-01T09:30:38.103Z,7.90
2018-12-01T09:33:06.465Z,7.90
2018-12-01T09:35:34.743Z,7.90
2018-12-01T09:38:03.024Z,8.00
2018-12-01T09:40:31.319Z,8.10
2018-12-01T09:42:59.588Z,8.10
2018-12-01T09:45:27.874Z,8.10
2018-12-01T09:47:56.529Z,8.10
2018-12-01T09:50:24.845Z,8.20
2018-12-01T09:52:55.226Z,8.30
2018-12-01T09:55:25.586Z,8.30
2018-12-01T09:57:53.887Z,8.30
2018-12-01T10:00:26.034Z,8.40
2018-12-01T10:02:54.359Z,8.50
2018-12-01T10:05:22.743Z,8.60
2018-12-01T10:07:51.015Z,8.80
2018-12-01T10:10:20.244Z,8.90
2018-12-01T10:12:49.770Z,9.10
2018-12-01T10:15:22.003Z,9.20
2018-12-01T10:17:50.269Z,9.40
2018-12-01T10:20:19.852Z,9.50
2018-12-01T10:22:48.171Z,9.50
2018-12-01T10:25:17.154Z,9.60
2018-12-01T10:27:45.799Z,9.70
2018-12-01T10:30:14.935Z,9.90
2018-12-01T10:32:43.184Z,10.00
2018-12-01T10:35:13.505Z,10.00
2018-12-01T10:37:41.781Z,9.90
2018-12-01T10:40:11.069Z,9.70
2018-12-01T10:42:39.331Z,9.80
2018-12-01T10:45:11.048Z,9.80
2018-12-01T10:47:39.474Z,9.60
2018-12-01T10:50:10.275Z,9.60
2018-12-01T10:52:38.966Z,9.70
2018-12-01T10:55:16.559Z,9.70
2018-12-01T10:57:44.893Z,9.70
2018-12-01T11:00:18.419Z,9.70
2018-12-01T11:02:55.584Z,9.70
2018-12-01T11:05:20.316Z,9.70
2018-12-01T11:07:48.554Z,9.40
2018-12-01T11:10:16.828Z,9.30
2018-12-01T11:12:45.086Z,9.20
2018-12-01T11:15:13.367Z,9.10
2018-12-01T11:17:41.614Z,9.00
2018-12-01T11:20:10.746Z,8.90
2018-12-01T11:22:39.177Z,8.80
2018-12-01T11:25:09.821Z,8.70
2018-12-01T11:27:38.074Z,8.60
2018-12-01T11:30:12.030Z,8.60
2018-12-01T11:32:40.536Z,8.50
2018-12-01T11:35:09.007Z,8.50
2018-12-01T11:37:37.414Z,8.40
2018-12-01T11:40:08.859Z,8.50
2018-12-01T11:42:37.209Z,8.40
2018-12-01T11:45:07.550Z,8.40
2018-12-01T11:47:35.806Z,8.40
2018-12-01T11:50:05.818Z,8.40
2018-12-01T11:52:34.136Z,8.40
2018-12-01T11:55:02.378Z,8.40
2018-12-01T11:57:30.647Z,8.40
2018-12-01T11:59:58.917Z,8.50
2018-12-01T12:02:27.178Z,8.50
2018-12-01T12:04:57.638Z,8.60
2018-12-01T12:07:37.147Z,8.70
2018-12-01T12:10:05.868Z,8.70
2018-12-01T12:12:34.136Z,8.80
2018-12-01T12:15:02.432Z,8.90
2018-12-01T12:17:30.707Z,9.00
2018-12-01T12:19:58.991Z,9.20
2018-12-01T12:22:27.275Z,9.30
2018-12-01T12:24:55.640Z,9.40
2018-12-01T12:27:23.906Z,9.50
2018-12-01T12:29:52.202Z,9.60
2018-12-01T12:32:20.582Z,9.80
2018-12-01T12:34:48.855Z,9.80
2018-12-01T12:37:17.216Z,9.80
2018-12-01T12:39:48.229Z,9.80
2018-12-01T12:42:16.504Z,9.70
2018-12-01T12:44:44.847Z,9.60
2018-12-01T12:47:25.273Z,9.50
2018-12-01T12:50:07.789Z,9.50
2018-12-01T12:52:36.107Z,9.40
2018-12-01T12:55:08.231Z,9.30
2018-12-01T12:57:36.932Z,9.30
2018-12-01T13:00:09.168Z,9.20
2018-12-01T13:02:38.399Z,9.10
2018-12-01T13:05:11.174Z,9.10
2018-12-01T13:07:39.455Z,9.00
2018-12-01T13:10:10.114Z,9.00
2018-12-01T13:12:38.439Z,9.00
2018-12-01T13:15:09.311Z,9.00
2018-12-01T13:17:37.663Z,9.00
2018-12-01T13:20:23.383Z,9.00
2018-12-01T13:23:00.284Z,9.00
2018-12-01T13:25:28.559Z,9.00
2018-12-01T13:28:21.307Z,9.00
2018-12-01T13:30:53.919Z,9.00
2018-12-01T13:33:22.279Z,9.10
2018-12-01T13:35:50.649Z,9.10
2018-12-01T13:38:19.039Z,9.10
2018-12-01T13:40:47.368Z,9.00
2018-12-01T13:43:15.696Z,9.00
2018-12-01T13:45:44.211Z,8.90
2018-12-01T13:48:12.505Z,8.90
2018-12-01T13:50:40.852Z,8.90
2018-12-01T13:53:11.220Z,8.90
2018-12-01T13:55:39.606Z,8.90
2018-12-01T13:58:07.870Z,9.00
2018-12-01T14:00:36.154Z,9.00
2018-12-01T14:03:04.508Z,9.00
2018-12-01T14:05:32.875Z,9.00
2018-12-01T14:08:01.236Z,9.10
2018-12-01T14:10:30.363Z,9.10
2018-12-01T14:13:02.335Z,9.10
2018-12-01T14:15:30.624Z,9.00
2018-12-01T14:17:58.930Z,8.90
2018-12-01T14:20:27.202Z,8.90
2018-12-01T14:22:55.610Z,8.80
2018-12-01T14:25:24.055Z,8.70
2018-12-01T14:27:55.928Z,8.60
2018-12-01T14:30:24.234Z,8.50
2018-12-01T14:32:52.587Z,8.50
2018-12-01T14:35:24.887Z,8.50
2018-12-01T14:37:56.530Z,8.50
2018-12-01T14:40:24.790Z,8.50
2018-12-01T14:42:53.047Z,8.50
2018-12-01T14:45:21.379Z,8.50
2018-12-01T14:47:49.847Z,8.60
2018-12-01T14:50:18.128Z,8.60
2018-12-01T14:52:46.586Z,8.60
2018-12-01T14:55:17.939Z,8.60
2018-12-01T14:57:46.825Z,8.60
2018-12-01T15:00:16.219Z,8.60
2018-12-01T15:02:44.559Z,8.60
2018-12-01T15:05:12.859Z,8.50
2018-12-01T15:07:41.159Z,8.50
2018-12-01T15:10:13.407Z,8.50
2018-12-01T15:12:41.711Z,8.40
2018-12-01T15:15:11.908Z,8.40
2018-12-01T15:17:40.182Z,8.40
2018-12-01T15:20:24.954Z,8.30
2018-12-01T15:22:56.011Z,8.20
2018-12-01T15:25:26.102Z,8.00
2018-12-01T15:27:54.542Z,7.90
2018-12-01T15:30:23.594Z,7.80
2018-12-01T15:33:25.048Z,7.70
2018-12-01T15:35:53.322Z,7.50
2018-12-01T15:38:21.724Z,7.30
2018-12-01T15:40:51.275Z,7.20
2018-12-01T15:43:19.586Z,7.10
2018-12-01T15:45:47.911Z,7.10
2018-12-01T15:48:16.363Z,7.00
2018-12-01T15:50:44.635Z,7.00
2018-12-01T15:53:14.194Z,7.00
2018-12-01T15:55:43.218Z,7.00
2018-12-01T15:58:10.847Z,6.90
2018-12-01T16:00:39.880Z,6.80
2018-12-01T16:03:08.160Z,6.80
2018-12-01T16:05:36.435Z,6.70
2018-12-01T16:08:05.232Z,6.60
2018-12-01T16:10:33.515Z,6.50
2018-12-01T16:13:05.602Z,6.40
2018-12-01T16:15:39.318Z,6.40
2018-12-01T16:18:08.235Z,6.30
2018-12-01T16:20:36.527Z,6.30
2018-12-01T16:23:04.858Z,6.30
2018-12-01T16:25:33.190Z,6.20
2018-12-01T16:28:01.450Z,6.10
2018-12-01T16:30:31.770Z,6.10
2018-12-01T16:33:09.696Z,6.00
2018-12-01T16:35:38.002Z,5.90
2018-12-01T16:38:07.830Z,5.80
2018-12-01T16:40:42.338Z,5.80
2018-12-01T16:43:12.059Z,5.70
2018-12-01T16:45:40.839Z,5.60
2018-12-01T16:48:09.114Z,5.70
2018-12-01T16:50:37.391Z,5.70
2018-12-01T16:53:07.227Z,5.60
2018-12-01T16:55:35.542Z,5.60
2018-12-01T16:58:03.818Z,5.60
2018-12-01T17:00:32.122Z,5.60
2018-12-01T17:03:00.519Z,5.50
2018-12-01T17:05:30.510Z,5.50
2018-12-01T17:07:58.778Z,5.40
2018-12-01T17:10:27.035Z,5.40
2018-12-01T17:12:56.251Z,5.30
2018-12-01T17:15:24.578Z,5.30
2018-12-01T17:17:52.896Z,5.30
2018-12-01T17:20:21.204Z,5.30
2018-12-01T17:22:54.752Z,5.30
2018-12-01T17:25:23.031Z,5.30
2018-12-01T17:27:52.303Z,5.20
2018-12-01T17:30:23.526Z,5.20
2018-12-01T17:32:52.439Z,5.10
2018-12-01T17:35:22.053Z,5.00
2018-12-01T17:37:51.459Z,5.00
2018-12-01T17:41:09.217Z,5.00
2018-12-01T17:43:41.727Z,4.90
2018-12-01T17:46:09.990Z,4.80
2018-12-01T17:48:38.282Z,4.80
2018-12-01T17:51:06.570Z,4.80
2018-12-01T17:53:34.871Z,4.70
2018-12-01T17:56:03.195Z,4.70
2018-12-01T17:58:31.508Z,4.60
2018-12-01T18:00:59.783Z,4.50
2018-12-01T18:03:28.113Z,4.60
2018-12-01T18:05:56.404Z,4.60
2018-12-01T18:08:24.760Z,4.50
2018-12-01T18:10:54.014Z,4.50
2018-12-01T18:13:32.115Z,4.50
2018-12-01T18:16:00.367Z,4.40
2018-12-01T18:18:29.652Z,4.40
2018-12-01T18:20:57.958Z,4.50
2018-12-01T18:23:26.228Z,4.50
2018-12-01T18:25:55.318Z,4.40
2018-12-01T18:28:32.215Z,4.40
2018-12-01T18:31:00.521Z,4.40
2018-12-01T18:33:31.495Z,4.40
2018-12-01T18:35:59.759Z,4.30
2018-12-01T18:38:28.082Z,4.20
2018-12-01T18:40:56.486Z,4.10
2018-12-01T18:43:24.760Z,4.10
2018-12-01T18:45:55.833Z,4.10
2018-12-01T18:48:24.101Z,4.10
2018-12-01T18:50:52.356Z,4.10
2018-12-01T18:53:20.603Z,4.10
2018-12-01T18:55:51.783Z,4.00
2018-12-01T18:58:20.280Z,4.00
2018-12-01T19:00:49.537Z,4.00
2018-12-01T19:03:18.542Z,4.00
2018-12-01T19:05:46.871Z,3.90
2018-12-01T19:08:15.120Z,3.90
2018-12-01T19:10:43.380Z,3.90
2018-12-01T19:13:11.632Z,3.80
2018-12-01T19:15:39.883Z,3.80
2018-12-01T19:18:08.571Z,3.80
2018-12-01T19:20:37.071Z,3.70
2018-12-01T19:23:06.594Z,3.70
2018-12-01T19:25:34.887Z,3.70
2018-12-01T19:28:03.162Z,3.60
2018-12-01T19:30:31.403Z,3.60
2018-12-01T19:33:02.911Z,3.60
2018-12-01T19:35:31.151Z,3.50
2018-12-01T19:37:59.414Z,3.50
2018-12-01T19:40:28.965Z,3.40
2018-12-01T19:42:57.780Z,3.40
2018-12-01T19:45:26.043Z,3.30
2018-12-01T19:47:54.329Z,3.30
2018-12-01T19:50:34.327Z,3.20
2018-12-01T19:53:02.591Z,3.20
2018-12-01T19:55:31.262Z,3.20
2018-12-01T19:58:00.319Z,3.10
2018-12-01T20:00:29.583Z,3.00
2018-12-01T20:03:06.518Z,3.00
2018-12-01T20:05:34.771Z,3.00
2018-12-01T20:08:03.067Z,3.00
2018-12-01T20:10:34.187Z,3.00
2018-12-01T20:13:11.594Z,2.90
2018-12-01T20:15:44.801Z,2.90
2018-12-01T20:18:23.187Z,2.90
2018-12-01T20:20:51.463Z,2.90
2018-12-01T20:23:19.728Z,2.90
2018-12-01T20:25:49.366Z,2.90
2018-12-01T20:28:17.632Z,2.90
2018-12-01T20:30:46.501Z,2.90
2018-12-01T20:33:14.954Z,2.90
2018-12-01T20:35:50.299Z,2.90
2018-12-01T20:38:23.872Z,2.90
2018-12-01T20:40:57.483Z,2.80
2018-12-01T20:43:20.839Z,2.80
2018-12-01T20:45:49.091Z,2.80
2018-12-01T20:48:17.350Z,2.80
2018-12-01T20:50:45.639Z,2.90
2018-12-01T20:53:13.892Z,2.90
2018-12-01T20:55:45.007Z,3.00
2018-12-01T20:58:13.297Z,3.00
2018-12-01T21:00:41.559Z,3.00
2018-12-01T21:03:09.804Z,3.00
2018-12-01T21:05:38.282Z,2.90
2018-12-01T21:08:07.327Z,2.90
2018-12-01T21:10:37.463Z,2.90
2018-12-01T21:13:06.279Z,2.90
2018-12-01T21:15:41.042Z,3.00
2018-12-01T21:18:09.284Z,3.00
2018-12-01T21:20:37.566Z,3.00
2018-12-01T21:23:06.118Z,3.00
2018-12-01T21:25:34.373Z,3.00
2018-12-01T21:28:02.635Z,3.10
2018-12-01T21:30:31.326Z,3.10
2018-12-01T21:33:03.227Z,3.10
2018-12-01T21:35:31.483Z,3.10
2018-12-01T21:37:59.738Z,3.10
2018-12-01T21:40:28.015Z,3.10
2018-12-01T21:42:56.289Z,3.10
2018-12-01T21:45:24.570Z,3.10
2018-12-01T21:47:52.827Z,3.20
2018-12-01T21:50:21.949Z,3.20
2018-12-01T21:52:52.597Z,3.20
2018-12-01T21:55:21.043Z,3.20
2018-12-01T21:57:49.860Z,3.20
2018-12-01T22:00:20.090Z,3.20
2018-12-01T22:02:54.733Z,3.30
2018-12-01T22:05:28.003Z,3.30
2018-12-01T22:07:56.344Z,3.30
2018-12-01T22:10:24.936Z,3.30
2018-12-01T22:12:53.212Z,3.30
2018-12-01T22:15:21.681Z,3.30
2018-12-01T22:17:49.969Z,3.30
2018-12-01T22:20:20.475Z,3.30
2018-12-01T22:22:48.973Z,3.20
2018-12-01T22:25:17.269Z,3.20
2018-12-01T22:27:45.523Z,3.20
2018-12-01T22:30:18.635Z,3.20
2018-12-01T22:32:55.639Z,3.20
2018-12-01T22:35:26.893Z,3.20
2018-12-01T22:37:55.914Z,3.30
2018-12-01T22:40:25.435Z,3.30
2018-12-01T22:42:54.989Z,3.30
2018-12-01T22:45:23.254Z,3.30
2018-12-01T22:47:51.499Z,3.40
2018-12-01T22:50:20.633Z,3.40
2018-12-01T22:52:49.211Z,3.40
2018-12-01T22:55:21.586Z,3.40
2018-12-01T22:57:54.041Z,3.40
2018-12-01T23:00:43.582Z,3.50
2018-12-01T23:03:12.590Z,3.50
2018-12-01T23:05:40.862Z,3.40
2018-12-01T23:08:11.504Z,3.40
2018-12-01T23:10:39.766Z,3.40
2018-12-01T23:13:08.117Z,3.40
2018-12-01T23:15:36.369Z,3.40
2018-12-01T23:18:10.097Z,3.50
2018-12-01T23:20:39.039Z,3.50
2018-12-01T23:23:07.590Z,3.50
2018-12-01T23:25:35.915Z,3.60
2018-12-01T23:28:04.250Z,3.50
2018-12-01T23:30:32.622Z,3.50
2018-12-01T23:33:03.087Z,3.60
2018-12-01T23:35:31.630Z,3.60
2018-12-01T23:38:00.015Z,3.70
2018-12-01T23:40:28.273Z,3.70
2018-12-01T23:42:56.518Z,3.70
2018-12-01T23:45:24.804Z,3.70
2018-12-01T23:47:53.078Z,3.70
2018-12-01T23:50:25.186Z,3.70
2018-12-01T23:52:54.639Z,3.70
2018-12-01T23:55:22.919Z,3.70
2018-12-01T23:57:51.183Z,3.70
